createdAt,value
2023-06-04T00:00:34.006Z,28.79
2023-06-04T00:03:01.761Z,28.61
2023-06-04T00:05:29.477Z,28.66
2023-06-04T00:07:57.168Z,28.45
2023-06-04T00:10:24.773Z,27.63
2023-06-04T00:12:52.440Z,27.62
2023-06-04T00:15:20.092Z,27.29
2023-06-04T00:17:49.206Z,27.14
2023-06-04T00:20:16.882Z,27.26
2023-06-04T00:22:44.663Z,27.68
2023-06-04T00:25:12.344Z,27.58
2023-06-04T00:27:40.027Z,28.08
2023-06-04T00:30:09.483Z,27.85
2023-06-04T00:32:38.022Z,28.34
2023-06-04T00:35:07.944Z,28.06
2023-06-04T00:37:35.620Z,28.15
2023-06-04T00:40:03.305Z,28.29
2023-06-04T00:42:31.015Z,28.49
2023-06-04T00:44:59.304Z,28.59
2023-06-04T00:47:27.322Z,28.74
2023-06-04T00:49:55.908Z,28.75
2023-06-04T00:52:24.930Z,28.68
2023-06-04T00:54:52.974Z,28.60
2023-06-04T00:57:20.652Z,29.55
2023-06-04T00:59:48.359Z,29.22
2023-06-04T01:02:17.252Z,29.42
2023-06-04T01:04:46.836Z,29.68
2023-06-04T01:07:15.584Z,29.22
2023-06-04T01:09:44.679Z,29.48
2023-06-04T01:12:12.692Z,30.12
2023-06-04T01:14:40.407Z,29.45
2023-06-04T01:17:09.707Z,29.82
2023-06-04T01:20:00.900Z,30.78
2023-06-04T01:22:32.498Z,30.88
2023-06-04T01:25:03.536Z,30.57
2023-06-04T01:27:31.300Z,30.22
2023-06-04T01:29:58.994Z,30.22
2023-06-04T01:32:26.717Z,29.91
2023-06-04T01:34:54.462Z,30.90
2023-06-04T01:37:22.194Z,31.39
2023-06-04T01:39:49.885Z,30.62
2023-06-04T01:42:18.985Z,31.26
2023-06-04T01:44:46.974Z,32.27
2023-06-04T01:47:15.743Z,31.56
2023-06-04T01:49:43.506Z,31.63
2023-06-04T01:52:11.965Z,31.49
2023-06-04T01:54:40.130Z,31.63
2023-06-04T01:57:09.004Z,32.08
2023-06-04T01:59:39.821Z,31.86
2023-06-04T02:02:07.748Z,31.83
2023-06-04T02:04:37.589Z,31.50
2023-06-04T02:07:05.536Z,31.65
2023-06-04T02:09:33.219Z,31.83
2023-06-04T02:12:00.892Z,31.80
2023-06-04T02:14:29.159Z,31.96
2023-06-04T02:16:59.238Z,31.69
2023-06-04T02:19:27.981Z,32.17
2023-06-04T02:21:55.671Z,32.88
2023-06-04T02:24:26.538Z,32.61
2023-06-04T02:26:54.216Z,33.03
2023-06-04T02:29:22.557Z,33.01
2023-06-04T02:31:50.339Z,33.23
2023-06-04T02:34:19.848Z,33.25
2023-06-04T02:36:49.256Z,33.22
2023-06-04T02:39:16.998Z,33.23
2023-06-04T02:41:44.644Z,33.16
2023-06-04T02:44:12.366Z,33.25
2023-06-04T02:46:40.144Z,33.01
2023-06-04T02:49:07.935Z,33.54
2023-06-04T02:51:37.471Z,33.89
2023-06-04T02:54:05.167Z,33.34
2023-06-04T02:56:32.820Z,33.88
2023-06-04T02:59:00.601Z,34.22
2023-06-04T03:01:28.738Z,33.77
2023-06-04T03:03:56.745Z,33.79
2023-06-04T03:06:25.137Z,34.05
2023-06-04T03:08:54.344Z,34.17
2023-06-04T03:11:22.483Z,34.08
2023-06-04T03:13:50.191Z,34.08
2023-06-04T03:16:17.965Z,35.07
2023-06-04T03:18:46.117Z,34.53
2023-06-04T03:21:14.319Z,34.46
2023-06-04T03:23:42.334Z,34.05
2023-06-04T03:26:13.930Z,34.12
2023-06-04T03:28:42.370Z,34.36
2023-06-04T03:31:11.815Z,34.05
2023-06-04T03:33:39.583Z,34.35
2023-06-04T03:36:07.347Z,34.32
2023-06-04T03:38:36.750Z,33.89
2023-06-04T03:41:05.344Z,35.51
2023-06-04T03:43:34.761Z,34.15
2023-06-04T03:46:05.929Z,34.00
2023-06-04T03:48:33.930Z,34.19
2023-06-04T03:51:01.976Z,34.36
2023-06-04T03:53:29.940Z,34.41
2023-06-04T03:55:57.822Z,34.06
2023-06-04T03:58:25.828Z,33.83
2023-06-04T04:00:55.362Z,34.10
2023-06-04T04:03:24.792Z,34.19
2023-06-04T04:05:53.274Z,34.15
2023-06-04T04:08:22.386Z,34.50
2023-06-04T04:10:50.639Z,34.51
2023-06-04T04:13:18.346Z,34.12
2023-06-04T04:15:46.389Z,34.57
2023-06-04T04:18:18.047Z,34.57
2023-06-04T04:20:46.921Z,34.17
2023-06-04T04:23:14.965Z,34.15
2023-06-04T04:25:46.051Z,33.26
2023-06-04T04:28:14.695Z,33.95
2023-06-04T04:30:42.940Z,33.38
2023-06-04T04:33:11.922Z,32.72
2023-06-04T04:35:46.590Z,32.58
2023-06-04T04:38:18.229Z,32.37
2023-06-04T04:40:53.368Z,33.62
2023-06-04T04:43:30.151Z,33.50
2023-06-04T04:45:59.119Z,32.39
2023-06-04T04:48:27.014Z,32.37
2023-06-04T04:50:56.209Z,33.13
2023-06-04T04:53:24.032Z,32.92
2023-06-04T04:55:51.837Z,31.73
2023-06-04T04:58:19.618Z,32.03
2023-06-04T05:00:48.807Z,32.25
2023-06-04T05:03:16.704Z,31.15
2023-06-04T05:05:45.474Z,31.59
2023-06-04T05:08:15.902Z,30.87
2023-06-04T05:10:44.728Z,31.72
2023-06-04T05:13:12.497Z,31.57
2023-06-04T05:15:48.937Z,31.50
2023-06-04T05:18:21.519Z,30.41
2023-06-04T05:20:50.226Z,30.04
2023-06-04T05:23:19.724Z,31.43
2023-06-04T05:25:51.501Z,30.31
2023-06-04T05:28:21.575Z,30.25
2023-06-04T05:30:49.741Z,29.77
2023-06-04T05:33:19.774Z,29.52
2023-06-04T05:35:58.703Z,29.73
2023-06-04T05:38:32.002Z,28.89
2023-06-04T05:41:04.999Z,29.89
2023-06-04T05:43:36.031Z,29.54
2023-06-04T05:46:04.161Z,29.00
2023-06-04T05:48:31.855Z,28.31
2023-06-04T05:50:59.597Z,28.37
2023-06-04T05:53:27.369Z,27.68
2023-06-04T05:55:56.532Z,27.98
2023-06-04T05:58:24.353Z,27.57
2023-06-04T06:00:52.445Z,27.58
2023-06-04T06:03:21.454Z,27.71
2023-06-04T06:05:50.947Z,27.22
2023-06-04T06:08:18.728Z,26.59
2023-06-04T06:10:47.127Z,27.34
2023-06-04T06:13:16.308Z,26.26
2023-06-04T06:15:44.554Z,26.12
2023-06-04T06:18:12.397Z,26.90
2023-06-04T06:20:40.147Z,26.90
2023-06-04T06:23:08.293Z,25.04
2023-06-04T06:25:41.355Z,24.96
2023-06-04T06:28:16.454Z,23.81
2023-06-04T06:30:46.253Z,24.50
2023-06-04T06:33:14.077Z,23.41
2023-06-04T06:35:41.840Z,24.05
2023-06-04T06:38:09.620Z,24.48
2023-06-04T06:40:37.323Z,24.46
2023-06-04T06:43:05.158Z,23.26
2023-06-04T06:45:35.971Z,23.97
2023-06-04T06:48:06.176Z,23.77
2023-06-04T06:50:34.475Z,23.28
2023-06-04T06:53:02.187Z,22.83
2023-06-04T06:55:29.857Z,22.60
2023-06-04T06:57:57.776Z,21.43
2023-06-04T07:00:26.143Z,20.87
2023-06-04T07:02:55.344Z,21.05
2023-06-04T07:05:23.203Z,22.35
2023-06-04T07:07:50.820Z,22.50
2023-06-04T07:10:18.531Z,21.64
2023-06-04T07:12:46.189Z,20.36
2023-06-04T07:15:13.922Z,22.50
2023-06-04T07:17:41.622Z,21.23
2023-06-04T07:20:11.059Z,20.67
2023-06-04T07:22:38.768Z,20.42
2023-06-04T07:25:07.650Z,21.04
2023-06-04T07:27:35.669Z,21.08
2023-06-04T07:30:03.383Z,21.63
2023-06-04T07:32:31.175Z,20.29
2023-06-04T07:34:58.971Z,20.90
2023-06-04T07:37:28.047Z,20.45
2023-06-04T07:39:55.911Z,19.82
2023-06-04T07:42:23.643Z,20.46
2023-06-04T07:44:51.357Z,20.32
2023-06-04T07:47:19.093Z,19.66
2023-06-04T07:50:01.246Z,19.72
2023-06-04T07:52:31.445Z,18.17
2023-06-04T07:54:59.165Z,18.42
2023-06-04T07:57:27.036Z,18.57
2023-06-04T07:59:54.703Z,20.28
2023-06-04T08:02:22.533Z,18.59
2023-06-04T08:04:51.039Z,17.67
2023-06-04T08:07:18.783Z,18.72
2023-06-04T08:09:47.860Z,18.74
2023-06-04T08:12:17.133Z,19.33
2023-06-04T08:14:44.884Z,18.98
2023-06-04T08:17:12.495Z,17.82
2023-06-04T08:19:40.300Z,17.92
2023-06-04T08:22:08.011Z,17.70
2023-06-04T08:24:38.681Z,18.33
2023-06-04T08:27:09.466Z,17.73
2023-06-04T08:29:38.155Z,19.13
2023-06-04T08:32:06.749Z,18.86
2023-06-04T08:34:34.489Z,19.24
2023-06-04T08:37:02.437Z,17.37
2023-06-04T08:39:30.127Z,16.75
2023-06-04T08:42:02.279Z,18.08
2023-06-04T08:44:31.685Z,16.70
2023-06-04T08:47:04.905Z,17.84
2023-06-04T08:49:32.707Z,16.94
2023-06-04T08:52:00.411Z,17.20
2023-06-04T08:54:28.064Z,18.37
2023-06-04T08:56:58.182Z,17.66
2023-06-04T08:59:26.338Z,17.85
2023-06-04T09:01:56.034Z,18.53
2023-06-04T09:04:23.770Z,17.65
2023-06-04T09:06:51.421Z,16.90
2023-06-04T09:09:19.138Z,17.11
2023-06-04T09:11:48.721Z,17.63
2023-06-04T09:14:18.434Z,16.70
2023-06-04T09:16:46.726Z,16.62
2023-06-04T09:19:15.905Z,17.69
2023-06-04T09:21:53.106Z,17.21
2023-06-04T09:24:21.903Z,17.87
2023-06-04T09:26:49.948Z,17.77
2023-06-04T09:29:17.702Z,16.41
2023-06-04T09:31:48.098Z,16.02
2023-06-04T09:34:17.291Z,16.43
2023-06-04T09:36:45.222Z,16.74
2023-06-04T09:39:19.168Z,16.18
2023-06-04T09:41:46.921Z,16.75
2023-06-04T09:44:14.579Z,18.39
2023-06-04T09:46:42.280Z,19.69
2023-06-04T09:49:10.075Z,16.25
2023-06-04T09:51:48.555Z,15.73
2023-06-04T09:54:16.309Z,16.16
2023-06-04T09:56:44.065Z,16.63
2023-06-04T09:59:12.055Z,17.28
2023-06-04T10:01:40.980Z,16.70
2023-06-04T10:04:09.000Z,16.06
2023-06-04T10:06:37.398Z,16.80
2023-06-04T10:09:08.632Z,16.78
2023-06-04T10:11:36.735Z,15.33
2023-06-04T10:14:05.282Z,16.72
2023-06-04T10:16:34.914Z,16.69
2023-06-04T10:19:03.136Z,16.96
2023-06-04T10:21:32.683Z,16.02
2023-06-04T10:24:00.816Z,16.34
2023-06-04T10:26:31.049Z,16.81
2023-06-04T10:28:58.798Z,16.73
2023-06-04T10:31:26.708Z,17.29
2023-06-04T10:33:55.880Z,16.92
2023-06-04T10:36:24.004Z,15.67
2023-06-04T10:38:55.018Z,15.32
2023-06-04T10:41:24.015Z,16.43
2023-06-04T10:43:53.301Z,16.31
2023-06-04T10:46:21.461Z,16.65
2023-06-04T10:48:49.970Z,15.98
2023-06-04T10:51:18.139Z,16.28
2023-06-04T10:53:46.148Z,15.87
2023-06-04T10:56:13.877Z,15.58
2023-06-04T10:58:41.525Z,17.05
2023-06-04T11:01:10.902Z,15.52
2023-06-04T11:03:39.027Z,15.74
2023-06-04T11:06:17.013Z,16.23
2023-06-04T11:08:44.748Z,15.62
2023-06-04T11:11:13.206Z,15.83
2023-06-04T11:13:40.939Z,15.64
2023-06-04T11:16:18.459Z,16.32
2023-06-04T11:18:46.314Z,16.09
2023-06-04T11:21:16.092Z,14.98
2023-06-04T11:23:44.416Z,16.05
2023-06-04T11:26:12.153Z,15.61
2023-06-04T11:28:39.869Z,15.28
2023-06-04T11:31:09.664Z,15.87
2023-06-04T11:33:45.672Z,16.18
2023-06-04T11:36:13.376Z,15.21
2023-06-04T11:38:41.058Z,14.59
2023-06-04T11:41:08.919Z,13.95
2023-06-04T11:43:40.190Z,12.12
2023-06-04T11:46:11.290Z,12.45
2023-06-04T11:48:39.862Z,12.83
2023-06-04T11:51:10.725Z,12.24
2023-06-04T11:53:38.781Z,12.23
2023-06-04T11:56:06.492Z,10.16
2023-06-04T11:58:34.414Z,9.22
2023-06-04T12:01:02.085Z,10.53
2023-06-04T12:03:35.727Z,11.05
2023-06-04T12:06:12.704Z,11.02
2023-06-04T12:08:50.179Z,10.78
2023-06-04T12:11:28.911Z,8.53
2023-06-04T12:13:57.093Z,10.69
2023-06-04T12:16:24.841Z,10.99
2023-06-04T12:18:52.760Z,10.28
2023-06-04T12:21:23.887Z,10.71
2023-06-04T12:23:51.725Z,9.21
2023-06-04T12:26:29.595Z,9.09
2023-06-04T12:29:01.249Z,9.28
2023-06-04T12:31:32.945Z,9.23
2023-06-04T12:34:01.795Z,8.52
2023-06-04T12:36:30.843Z,8.81
2023-06-04T12:39:00.265Z,8.55
2023-06-04T12:41:28.069Z,8.59
2023-06-04T12:43:55.959Z,8.52
2023-06-04T12:46:23.998Z,8.87
2023-06-04T12:48:51.920Z,8.83
2023-06-04T12:51:19.687Z,9.29
2023-06-04T12:53:49.290Z,8.84
2023-06-04T12:56:17.222Z,7.96
2023-06-04T12:58:44.901Z,8.01
2023-06-04T13:01:12.642Z,6.93
2023-06-04T13:03:41.849Z,7.85
2023-06-04T13:06:09.690Z,6.87
2023-06-04T13:08:37.930Z,6.29
2023-06-04T13:11:07.624Z,6.46
2023-06-04T13:13:35.467Z,6.83
2023-06-04T13:16:03.242Z,6.88
2023-06-04T13:18:30.947Z,7.82
2023-06-04T13:20:58.646Z,8.21
2023-06-04T13:23:34.278Z,7.23
2023-06-04T13:26:06.938Z,7.97
2023-06-04T13:28:34.658Z,8.45
2023-06-04T13:31:02.652Z,7.36
2023-06-04T13:33:30.370Z,7.37
2023-06-04T13:35:58.033Z,8.05
2023-06-04T13:38:25.718Z,6.74
2023-06-04T13:40:54.205Z,7.71
2023-06-04T13:43:23.235Z,7.82
2023-06-04T13:45:50.931Z,7.64
2023-06-04T13:48:18.658Z,7.91
2023-06-04T13:50:46.590Z,7.08
2023-06-04T13:53:14.431Z,8.09
2023-06-04T13:55:42.221Z,8.05
2023-06-04T13:58:09.906Z,7.63
2023-06-04T14:00:38.927Z,8.20
2023-06-04T14:03:06.758Z,7.91
2023-06-04T14:05:34.543Z,8.05
2023-06-04T14:08:03.894Z,6.13
2023-06-04T14:10:31.611Z,6.00
2023-06-04T14:12:59.273Z,6.91
2023-06-04T14:15:27.294Z,6.80
2023-06-04T14:17:56.483Z,7.46
2023-06-04T14:20:24.203Z,7.57
2023-06-04T14:22:51.955Z,7.13
2023-06-04T14:25:19.639Z,7.26
2023-06-04T14:27:47.337Z,7.71
2023-06-04T14:30:15.316Z,7.66
2023-06-04T14:32:43.411Z,7.50
2023-06-04T14:35:13.690Z,7.55
2023-06-04T14:37:41.373Z,7.60
2023-06-04T14:40:09.450Z,7.60
2023-06-04T14:42:37.114Z,7.62
2023-06-04T14:45:05.033Z,6.71
2023-06-04T14:47:32.751Z,6.61
2023-06-04T14:50:00.554Z,5.88
2023-06-04T14:52:29.996Z,6.08
2023-06-04T14:54:57.669Z,6.85
2023-06-04T14:57:25.347Z,6.42
2023-06-04T14:59:53.022Z,6.20
2023-06-04T15:02:21.736Z,6.97
2023-06-04T15:04:49.532Z,5.99
2023-06-04T15:07:17.192Z,6.40
2023-06-04T15:09:48.788Z,7.17
2023-06-04T15:12:17.959Z,7.09
2023-06-04T15:14:45.698Z,7.52
2023-06-04T15:17:13.413Z,7.18
2023-06-04T15:19:41.619Z,6.21
2023-06-04T15:22:09.489Z,6.95
2023-06-04T15:24:37.180Z,6.63
2023-06-04T15:27:06.595Z,7.15
2023-06-04T15:29:34.270Z,7.79
2023-06-04T15:32:02.038Z,6.75
2023-06-04T15:34:29.737Z,6.84
2023-06-04T15:36:57.446Z,6.79
2023-06-04T15:39:25.240Z,7.95
2023-06-04T15:41:52.911Z,8.25
2023-06-04T15:44:21.926Z,8.10
2023-06-04T15:46:49.612Z,8.60
2023-06-04T15:49:17.919Z,9.80
2023-06-04T15:51:45.649Z,8.93
2023-06-04T15:54:13.294Z,9.09
2023-06-04T15:56:40.984Z,9.38
2023-06-04T15:59:08.783Z,9.94
2023-06-04T16:01:38.239Z,10.54
2023-06-04T16:04:06.049Z,11.08
2023-06-04T16:06:33.797Z,10.50
2023-06-04T16:09:01.493Z,10.92
2023-06-04T16:11:29.316Z,11.23
2023-06-04T16:13:57.010Z,11.13
2023-06-04T16:16:24.741Z,10.76
2023-06-04T16:18:53.828Z,10.86
2023-06-04T16:21:21.678Z,11.54
2023-06-04T16:23:49.371Z,9.96
2023-06-04T16:26:17.054Z,9.70
2023-06-04T16:28:44.756Z,9.74
2023-06-04T16:31:12.504Z,9.20
2023-06-04T16:33:40.437Z,9.26
2023-06-04T16:36:09.731Z,7.95
2023-06-04T16:38:37.540Z,7.65
2023-06-04T16:41:05.789Z,7.30
2023-06-04T16:43:33.512Z,7.83
2023-06-04T16:46:01.222Z,8.30
2023-06-04T16:48:28.855Z,8.55
2023-06-04T16:50:56.685Z,8.43
2023-06-04T16:53:25.762Z,8.50
2023-06-04T16:55:53.400Z,8.12
2023-06-04T16:58:21.101Z,7.54
2023-06-04T17:00:49.357Z,8.23
2023-06-04T17:03:17.337Z,8.30
2023-06-04T17:05:45.257Z,7.95
2023-06-04T17:08:12.908Z,7.92
2023-06-04T17:10:41.954Z,7.62
2023-06-04T17:13:09.665Z,7.36
2023-06-04T17:15:37.535Z,7.77
2023-06-04T17:18:11.378Z,7.75
2023-06-04T17:20:39.494Z,7.66
2023-06-04T17:23:19.891Z,8.23
2023-06-04T17:25:49.020Z,8.25
2023-06-04T17:28:17.145Z,7.98
2023-06-04T17:30:44.822Z,8.88
2023-06-04T17:33:12.543Z,9.74
2023-06-04T17:35:40.553Z,10.03
2023-06-04T17:38:08.270Z,10.30
2023-06-04T17:40:36.092Z,10.59
2023-06-04T17:43:05.133Z,10.29
2023-06-04T17:45:33.246Z,9.53
2023-06-04T17:48:01.088Z,9.96
2023-06-04T17:50:28.832Z,10.23
2023-06-04T17:52:58.710Z,9.48
2023-06-04T17:55:27.763Z,9.82
2023-06-04T17:57:56.582Z,11.45
2023-06-04T18:00:25.755Z,10.74
2023-06-04T18:02:53.450Z,10.10
2023-06-04T18:05:21.170Z,10.61
2023-06-04T18:07:48.809Z,10.64
2023-06-04T18:10:16.469Z,10.84
2023-06-04T18:12:45.953Z,10.71
2023-06-04T18:15:14.684Z,10.36
2023-06-04T18:17:43.749Z,11.10
2023-06-04T18:20:11.902Z,10.83
2023-06-04T18:22:39.651Z,10.72
2023-06-04T18:25:08.812Z,10.67
2023-06-04T18:27:36.797Z,10.98
2023-06-04T18:30:04.549Z,11.37
2023-06-04T18:32:32.253Z,11.63
2023-06-04T18:35:01.282Z,13.05
2023-06-04T18:37:28.946Z,13.76
2023-06-04T18:39:56.966Z,14.11
2023-06-04T18:42:30.841Z,14.53
2023-06-04T18:45:00.487Z,15.18
2023-06-04T18:47:28.574Z,15.76
2023-06-04T18:49:57.284Z,15.59
2023-06-04T18:52:26.387Z,15.95
2023-06-04T18:54:54.082Z,15.75
2023-06-04T18:57:21.767Z,15.88
2023-06-04T18:59:49.441Z,16.60
2023-06-04T19:02:17.187Z,17.07
2023-06-04T19:04:46.133Z,16.52
2023-06-04T19:07:13.750Z,16.55
2023-06-04T19:09:42.859Z,16.78
2023-06-04T19:12:10.654Z,17.02
2023-06-04T19:14:38.501Z,17.01
2023-06-04T19:17:06.398Z,17.14
2023-06-04T19:19:34.121Z,17.93
2023-06-04T19:22:01.763Z,18.35
2023-06-04T19:24:29.457Z,18.62
2023-06-04T19:26:58.468Z,18.67
2023-06-04T19:29:26.125Z,18.65
2023-06-04T19:31:53.820Z,19.44
2023-06-04T19:34:21.595Z,19.18
2023-06-04T19:36:49.432Z,20.17
2023-06-04T19:39:17.067Z,19.63
2023-06-04T19:41:44.791Z,19.62
2023-06-04T19:44:13.831Z,19.94
2023-06-04T19:46:41.546Z,20.34
2023-06-04T19:49:09.429Z,20.36
2023-06-04T19:51:37.445Z,20.23
2023-06-04T19:54:05.207Z,20.39
2023-06-04T19:56:32.861Z,20.52
2023-06-04T19:59:01.350Z,20.79
2023-06-04T20:01:30.550Z,20.82
2023-06-04T20:03:58.422Z,21.12
2023-06-04T20:06:26.359Z,21.27
2023-06-04T20:08:54.085Z,21.41
2023-06-04T20:11:22.947Z,21.65
2023-06-04T20:13:50.642Z,21.84
2023-06-04T20:16:18.452Z,22.32
2023-06-04T20:18:47.796Z,22.23
2023-06-04T20:21:15.526Z,22.62
2023-06-04T20:23:43.333Z,22.97
2023-06-04T20:26:11.060Z,22.75
2023-06-04T20:28:38.914Z,22.80
2023-06-04T20:31:06.699Z,23.32
2023-06-04T20:33:34.611Z,23.05
2023-06-04T20:36:03.688Z,23.18
2023-06-04T20:38:31.753Z,23.52
2023-06-04T20:40:59.398Z,23.34
2023-06-04T20:43:27.071Z,23.22
2023-06-04T20:45:57.275Z,23.58
2023-06-04T20:48:25.146Z,22.93
2023-06-04T20:50:52.870Z,23.37
2023-06-04T20:53:21.886Z,23.18
2023-06-04T20:55:49.528Z,23.84
2023-06-04T20:58:18.602Z,23.58
2023-06-04T21:00:47.031Z,23.85
2023-06-04T21:03:15.135Z,22.96
2023-06-04T21:05:42.940Z,24.01
2023-06-04T21:08:11.126Z,23.38
2023-06-04T21:10:40.622Z,23.23
2023-06-04T21:13:08.308Z,23.42
2023-06-04T21:15:36.038Z,23.61
2023-06-04T21:18:03.850Z,23.75
2023-06-04T21:20:31.578Z,24.25
2023-06-04T21:22:59.236Z,24.51
2023-06-04T21:25:26.912Z,24.51
2023-06-04T21:27:55.999Z,25.03
2023-06-04T21:30:24.002Z,24.70
2023-06-04T21:32:51.722Z,24.86
2023-06-04T21:35:19.537Z,25.08
2023-06-04T21:37:47.221Z,25.43
2023-06-04T21:40:14.956Z,25.23
2023-06-04T21:42:42.681Z,25.22
2023-06-04T21:45:12.854Z,25.05
2023-06-04T21:47:41.132Z,25.46
2023-06-04T21:50:09.321Z,25.83
2023-06-04T21:52:36.954Z,26.14
2023-06-04T21:55:04.845Z,26.87
2023-06-04T21:57:32.502Z,27.19
2023-06-04T22:00:00.320Z,25.92
2023-06-04T22:02:29.514Z,25.71
2023-06-04T22:04:57.238Z,26.55
2023-06-04T22:07:24.960Z,26.81
2023-06-04T22:09:52.637Z,26.64
2023-06-04T22:12:22.279Z,26.52
2023-06-04T22:14:50.226Z,25.68
2023-06-04T22:17:17.858Z,25.22
2023-06-04T22:19:46.881Z,25.28
2023-06-04T22:22:14.557Z,25.36
2023-06-04T22:24:42.208Z,25.48
2023-06-04T22:27:09.871Z,25.67
2023-06-04T22:29:37.530Z,26.24
2023-06-04T22:32:05.312Z,26.69
2023-06-04T22:34:33.104Z,27.27
2023-06-04T22:37:02.146Z,27.34
2023-06-04T22:39:29.872Z,27.04
2023-06-04T22:41:57.591Z,27.64
2023-06-04T22:44:25.566Z,27.86
2023-06-04T22:46:53.374Z,28.03
2023-06-04T22:49:21.105Z,28.41
2023-06-04T22:51:48.828Z,28.27
2023-06-04T22:54:17.870Z,29.09
2023-06-04T22:56:45.606Z,28.81
2023-06-04T22:59:13.318Z,29.01
2023-06-04T23:01:41.183Z,30.20
2023-06-04T23:04:08.934Z,28.79
2023-06-04T23:06:38.770Z,29.20
2023-06-04T23:09:06.486Z,28.91
2023-06-04T23:11:35.632Z,30.07
2023-06-04T23:14:03.511Z,30.38
2023-06-04T23:16:31.267Z,30.12
2023-06-04T23:18:58.981Z,30.21
2023-06-04T23:21:26.623Z,30.17
2023-06-04T23:23:54.377Z,30.29
2023-06-04T23:26:22.326Z,30.95
2023-06-04T23:28:51.460Z,31.29
2023-06-04T23:31:19.213Z,30.60
2023-06-04T23:33:46.967Z,30.45
2023-06-04T23:36:14.721Z,31.06
2023-06-04T23:38:42.448Z,31.47
2023-06-04T23:41:10.356Z,31.71
2023-06-04T23:43:38.258Z,31.83
2023-06-04T23:46:07.327Z,31.73
2023-06-04T23:48:35.059Z,31.94
2023-06-04T23:51:02.692Z,32.61
2023-06-04T23:53:30.793Z,32.49
2023-06-04T23:55:58.416Z,32.44
2023-06-04T23:58:26.145Z,31.95
